sensor_id;sensor_type;location;lat;lon;timestamp;P1;durP1;ratioP1;P2;durP2;ratioP2
30420;SDS011;17218;54.070;10.012;2022-11-27T00:01:27;72.55;;;30.60;;
30420;SDS011;17218;54.070;10.012;2022-11-27T00:03:55;74.10;;;30.50;;
30420;SDS011;17218;54.070;10.012;2022-11-27T00:06:22;68.07;;;30.17;;
30420;SDS011;17218;54.070;10.012;2022-11-27T00:08:50;66.28;;;30.17;;
30420;SDS011;17218;54.070;10.012;2022-11-27T00:11:19;69.70;;;30.60;;
30420;SDS011;17218;54.070;10.012;2022-11-27T00:13:47;68.38;;;29.73;;
30420;SDS011;17218;54.070;10.012;2022-11-27T00:16:14;73.15;;;31.88;;
30420;SDS011;17218;54.070;10.012;2022-11-27T00:18:42;69.65;;;31.23;;
30420;SDS011;17218;54.070;10.012;2022-11-27T00:21:09;73.72;;;29.15;;
30420;SDS011;17218;54.070;10.012;2022-11-27T00:23:37;74.30;;;29.30;;
30420;SDS011;17218;54.070;10.012;2022-11-27T00:26:04;72.25;;;28.67;;
30420;SDS011;17218;54.070;10.012;2022-11-27T00:28:33;55.63;;;27.77;;
30420;SDS011;17218;54.070;10.012;2022-11-27T00:31:01;65.57;;;27.47;;
30420;SDS011;17218;54.070;10.012;2022-11-27T00:33:29;61.63;;;26.30;;
30420;SDS011;17218;54.070;10.012;2022-11-27T00:36:00;61.45;;;25.05;;
30420;SDS011;17218;54.070;10.012;2022-11-27T00:38:27;60.25;;;26.70;;
30420;SDS011;17218;54.070;10.012;2022-11-27T00:40:57;59.80;;;25.93;;
30420;SDS011;17218;54.070;10.012;2022-11-27T00:43:23;54.05;;;24.92;;
30420;SDS011;17218;54.070;10.012;2022-11-27T00:45:51;54.08;;;24.60;;
30420;SDS011;17218;54.070;10.012;2022-11-27T00:48:18;54.03;;;24.48;;
30420;SDS011;17218;54.070;10.012;2022-11-27T00:50:45;64.70;;;23.98;;
30420;SDS011;17218;54.070;10.012;2022-11-27T00:53:11;60.60;;;25.05;;
30420;SDS011;17218;54.070;10.012;2022-11-27T00:55:38;52.28;;;25.00;;
30420;SDS011;17218;54.070;10.012;2022-11-27T00:58:04;56.30;;;23.85;;
30420;SDS011;17218;54.070;10.012;2022-11-27T01:00:31;58.72;;;25.15;;
30420;SDS011;17218;54.070;10.012;2022-11-27T01:02:59;47.63;;;24.45;;
30420;SDS011;17218;54.070;10.012;2022-11-27T01:05:26;49.95;;;24.23;;
30420;SDS011;17218;54.070;10.012;2022-11-27T01:07:52;53.53;;;23.35;;
30420;SDS011;17218;54.070;10.012;2022-11-27T01:10:19;52.65;;;24.75;;
30420;SDS011;17218;54.070;10.012;2022-11-27T01:12:47;53.20;;;24.35;;
30420;SDS011;17218;54.070;10.012;2022-11-27T01:15:14;49.47;;;23.90;;
30420;SDS011;17218;54.070;10.012;2022-11-27T01:17:40;54.90;;;23.03;;
30420;SDS011;17218;54.070;10.012;2022-11-27T01:20:09;52.10;;;22.38;;
30420;SDS011;17218;54.070;10.012;2022-11-27T01:22:36;52.70;;;22.05;;
30420;SDS011;17218;54.070;10.012;2022-11-27T01:25:03;47.75;;;22.25;;
30420;SDS011;17218;54.070;10.012;2022-11-27T01:27:30;51.42;;;20.77;;
30420;SDS011;17218;54.070;10.012;2022-11-27T01:29:57;46.35;;;21.10;;
30420;SDS011;17218;54.070;10.012;2022-11-27T01:32:24;46.15;;;20.90;;
30420;SDS011;17218;54.070;10.012;2022-11-27T01:34:51;45.00;;;19.50;;
30420;SDS011;17218;54.070;10.012;2022-11-27T01:37:19;42.72;;;21.20;;
30420;SDS011;17218;54.070;10.012;2022-11-27T01:39:45;38.67;;;20.52;;
30420;SDS011;17218;54.070;10.012;2022-11-27T01:42:12;46.22;;;20.00;;
30420;SDS011;17218;54.070;10.012;2022-11-27T01:44:46;40.03;;;20.60;;
30420;SDS011;17218;54.070;10.012;2022-11-27T01:47:16;38.72;;;19.00;;
30420;SDS011;17218;54.070;10.012;2022-11-27T01:49:52;45.53;;;18.13;;
30420;SDS011;17218;54.070;10.012;2022-11-27T01:52:24;39.67;;;18.52;;
30420;SDS011;17218;54.070;10.012;2022-11-27T01:54:55;39.42;;;18.25;;
30420;SDS011;17218;54.070;10.012;2022-11-27T01:57:26;38.37;;;18.20;;
30420;SDS011;17218;54.070;10.012;2022-11-27T01:59:56;35.92;;;16.27;;
30420;SDS011;17218;54.070;10.012;2022-11-27T02:02:25;41.35;;;17.08;;
30420;SDS011;17218;54.070;10.012;2022-11-27T02:04:52;41.80;;;17.10;;
30420;SDS011;17218;54.070;10.012;2022-11-27T02:07:19;36.60;;;16.88;;
30420;SDS011;17218;54.070;10.012;2022-11-27T02:09:48;37.45;;;16.85;;
30420;SDS011;17218;54.070;10.012;2022-11-27T02:12:23;35.67;;;16.13;;
30420;SDS011;17218;54.070;10.012;2022-11-27T02:14:55;33.30;;;16.50;;
30420;SDS011;17218;54.070;10.012;2022-11-27T02:17:35;35.65;;;16.25;;
30420;SDS011;17218;54.070;10.012;2022-11-27T02:26:16;39.13;;;16.27;;
30420;SDS011;17218;54.070;10.012;2022-11-27T02:29:02;34.55;;;15.05;;
30420;SDS011;17218;54.070;10.012;2022-11-27T02:31:33;37.27;;;14.77;;
30420;SDS011;17218;54.070;10.012;2022-11-27T02:34:08;40.33;;;15.83;;
30420;SDS011;17218;54.070;10.012;2022-11-27T02:36:40;31.03;;;15.07;;
30420;SDS011;17218;54.070;10.012;2022-11-27T02:39:15;34.60;;;15.70;;
30420;SDS011;17218;54.070;10.012;2022-11-27T02:41:46;32.70;;;14.90;;
30420;SDS011;17218;54.070;10.012;2022-11-27T02:44:21;31.87;;;15.63;;
30420;SDS011;17218;54.070;10.012;2022-11-27T02:46:51;34.00;;;15.47;;
30420;SDS011;17218;54.070;10.012;2022-11-27T02:49:19;33.57;;;15.13;;
30420;SDS011;17218;54.070;10.012;2022-11-27T02:51:48;27.13;;;13.97;;
30420;SDS011;17218;54.070;10.012;2022-11-27T02:54:20;30.40;;;14.53;;
30420;SDS011;17218;54.070;10.012;2022-11-27T02:56:52;34.33;;;14.73;;
30420;SDS011;17218;54.070;10.012;2022-11-27T02:59:22;38.37;;;15.97;;
30420;SDS011;17218;54.070;10.012;2022-11-27T03:01:54;27.40;;;13.10;;
30420;SDS011;17218;54.070;10.012;2022-11-27T03:04:24;29.30;;;14.37;;
30420;SDS011;17218;54.070;10.012;2022-11-27T03:06:57;26.80;;;13.23;;
30420;SDS011;17218;54.070;10.012;2022-11-27T03:09:31;27.40;;;13.33;;
30420;SDS011;17218;54.070;10.012;2022-11-27T03:12:01;32.80;;;13.73;;
30420;SDS011;17218;54.070;10.012;2022-11-27T03:14:29;35.73;;;13.73;;
30420;SDS011;17218;54.070;10.012;2022-11-27T03:16:58;27.97;;;13.47;;
30420;SDS011;17218;54.070;10.012;2022-11-27T03:19:34;27.80;;;13.50;;
30420;SDS011;17218;54.070;10.012;2022-11-27T03:22:08;30.20;;;13.50;;
30420;SDS011;17218;54.070;10.012;2022-11-27T03:24:35;30.50;;;13.40;;
30420;SDS011;17218;54.070;10.012;2022-11-27T03:27:02;29.63;;;13.60;;
30420;SDS011;17218;54.070;10.012;2022-11-27T03:29:33;28.40;;;13.33;;
30420;SDS011;17218;54.070;10.012;2022-11-27T03:32:04;30.30;;;13.03;;
30420;SDS011;17218;54.070;10.012;2022-11-27T03:34:31;23.17;;;12.03;;
30420;SDS011;17218;54.070;10.012;2022-11-27T03:36:59;29.60;;;12.50;;
30420;SDS011;17218;54.070;10.012;2022-11-27T03:39:26;30.27;;;13.40;;
30420;SDS011;17218;54.070;10.012;2022-11-27T03:41:55;19.73;;;11.77;;
30420;SDS011;17218;54.070;10.012;2022-11-27T03:44:34;24.13;;;14.00;;
30420;SDS011;17218;54.070;10.012;2022-11-27T03:47:11;22.13;;;12.53;;
30420;SDS011;17218;54.070;10.012;2022-11-27T03:49:50;26.93;;;12.07;;
30420;SDS011;17218;54.070;10.012;2022-11-27T03:52:31;28.85;;;14.43;;
30420;SDS011;17218;54.070;10.012;2022-11-27T03:55:06;32.50;;;12.77;;
30420;SDS011;17218;54.070;10.012;2022-11-27T03:57:40;34.23;;;12.80;;
30420;SDS011;17218;54.070;10.012;2022-11-27T04:00:15;30.13;;;13.10;;
30420;SDS011;17218;54.070;10.012;2022-11-27T04:02:43;24.00;;;11.80;;
30420;SDS011;17218;54.070;10.012;2022-11-27T04:05:11;24.60;;;12.60;;
30420;SDS011;17218;54.070;10.012;2022-11-27T04:07:39;22.67;;;11.03;;
30420;SDS011;17218;54.070;10.012;2022-11-27T04:10:06;22.73;;;10.60;;
30420;SDS011;17218;54.070;10.012;2022-11-27T04:12:34;25.63;;;11.97;;
30420;SDS011;17218;54.070;10.012;2022-11-27T04:15:01;23.03;;;11.10;;
30420;SDS011;17218;54.070;10.012;2022-11-27T04:17:29;19.93;;;10.20;;
30420;SDS011;17218;54.070;10.012;2022-11-27T04:19:56;20.87;;;10.53;;
30420;SDS011;17218;54.070;10.012;2022-11-27T04:22:22;24.87;;;10.83;;
30420;SDS011;17218;54.070;10.012;2022-11-27T04:24:49;26.43;;;11.87;;
30420;SDS011;17218;54.070;10.012;2022-11-27T04:27:16;20.10;;;10.77;;
30420;SDS011;17218;54.070;10.012;2022-11-27T04:29:43;19.30;;;10.63;;
30420;SDS011;17218;54.070;10.012;2022-11-27T04:32:10;23.73;;;10.63;;
30420;SDS011;17218;54.070;10.012;2022-11-27T04:34:38;24.30;;;10.23;;
30420;SDS011;17218;54.070;10.012;2022-11-27T04:37:04;17.30;;;9.70;;
30420;SDS011;17218;54.070;10.012;2022-11-27T04:39:31;19.73;;;9.87;;
30420;SDS011;17218;54.070;10.012;2022-11-27T04:41:57;18.70;;;9.57;;
30420;SDS011;17218;54.070;10.012;2022-11-27T04:44:24;21.50;;;9.90;;
30420;SDS011;17218;54.070;10.012;2022-11-27T04:46:51;18.53;;;9.37;;
30420;SDS011;17218;54.070;10.012;2022-11-27T04:49:17;24.33;;;10.73;;
30420;SDS011;17218;54.070;10.012;2022-11-27T04:51:45;26.23;;;11.47;;
30420;SDS011;17218;54.070;10.012;2022-11-27T04:54:12;20.57;;;11.73;;
30420;SDS011;17218;54.070;10.012;2022-11-27T04:56:39;22.07;;;11.00;;
30420;SDS011;17218;54.070;10.012;2022-11-27T04:59:05;28.57;;;11.63;;
30420;SDS011;17218;54.070;10.012;2022-11-27T05:01:32;24.27;;;11.83;;
30420;SDS011;17218;54.070;10.012;2022-11-27T05:03:58;26.27;;;11.80;;
30420;SDS011;17218;54.070;10.012;2022-11-27T05:06:25;22.27;;;11.43;;
30420;SDS011;17218;54.070;10.012;2022-11-27T05:08:53;24.27;;;11.40;;
30420;SDS011;17218;54.070;10.012;2022-11-27T05:11:24;25.27;;;11.47;;
30420;SDS011;17218;54.070;10.012;2022-11-27T05:13:51;30.53;;;11.77;;
30420;SDS011;17218;54.070;10.012;2022-11-27T05:16:38;26.13;;;12.67;;
30420;SDS011;17218;54.070;10.012;2022-11-27T05:19:04;24.23;;;12.53;;
30420;SDS011;17218;54.070;10.012;2022-11-27T05:21:32;28.07;;;13.37;;
30420;SDS011;17218;54.070;10.012;2022-11-27T05:24:00;23.70;;;12.20;;
30420;SDS011;17218;54.070;10.012;2022-11-27T05:26:26;31.27;;;13.37;;
30420;SDS011;17218;54.070;10.012;2022-11-27T05:28:53;26.37;;;11.87;;
30420;SDS011;17218;54.070;10.012;2022-11-27T05:31:20;27.00;;;12.13;;
30420;SDS011;17218;54.070;10.012;2022-11-27T05:33:46;21.63;;;10.63;;
30420;SDS011;17218;54.070;10.012;2022-11-27T05:36:13;19.30;;;11.07;;
30420;SDS011;17218;54.070;10.012;2022-11-27T05:38:39;20.80;;;11.37;;
30420;SDS011;17218;54.070;10.012;2022-11-27T05:41:08;26.13;;;11.27;;
30420;SDS011;17218;54.070;10.012;2022-11-27T05:43:34;26.40;;;12.00;;
30420;SDS011;17218;54.070;10.012;2022-11-27T05:46:03;25.83;;;12.10;;
30420;SDS011;17218;54.070;10.012;2022-11-27T05:48:30;27.10;;;13.07;;
30420;SDS011;17218;54.070;10.012;2022-11-27T05:50:57;28.73;;;12.57;;
30420;SDS011;17218;54.070;10.012;2022-11-27T05:53:23;30.70;;;13.43;;
30420;SDS011;17218;54.070;10.012;2022-11-27T05:55:50;26.53;;;13.43;;
30420;SDS011;17218;54.070;10.012;2022-11-27T05:58:18;25.27;;;12.17;;
30420;SDS011;17218;54.070;10.012;2022-11-27T06:00:45;24.60;;;12.57;;
30420;SDS011;17218;54.070;10.012;2022-11-27T06:03:11;21.40;;;11.93;;
30420;SDS011;17218;54.070;10.012;2022-11-27T06:05:38;24.07;;;12.20;;
30420;SDS011;17218;54.070;10.012;2022-11-27T06:08:05;30.63;;;13.83;;
30420;SDS011;17218;54.070;10.012;2022-11-27T06:10:32;29.33;;;14.33;;
30420;SDS011;17218;54.070;10.012;2022-11-27T06:12:59;27.37;;;14.87;;
30420;SDS011;17218;54.070;10.012;2022-11-27T06:15:27;29.57;;;16.30;;
30420;SDS011;17218;54.070;10.012;2022-11-27T06:17:53;34.13;;;16.50;;
30420;SDS011;17218;54.070;10.012;2022-11-27T06:20:20;33.27;;;17.03;;
30420;SDS011;17218;54.070;10.012;2022-11-27T06:22:47;37.73;;;16.63;;
30420;SDS011;17218;54.070;10.012;2022-11-27T06:25:14;31.63;;;16.47;;
30420;SDS011;17218;54.070;10.012;2022-11-27T06:27:41;37.33;;;17.27;;
30420;SDS011;17218;54.070;10.012;2022-11-27T06:30:08;32.30;;;17.20;;
30420;SDS011;17218;54.070;10.012;2022-11-27T06:32:37;40.50;;;18.40;;
30420;SDS011;17218;54.070;10.012;2022-11-27T06:35:04;29.80;;;16.27;;
30420;SDS011;17218;54.070;10.012;2022-11-27T06:37:32;41.63;;;17.70;;
30420;SDS011;17218;54.070;10.012;2022-11-27T06:39:58;35.13;;;17.30;;
30420;SDS011;17218;54.070;10.012;2022-11-27T06:42:27;30.80;;;16.37;;
30420;SDS011;17218;54.070;10.012;2022-11-27T06:44:54;33.20;;;16.33;;
30420;SDS011;17218;54.070;10.012;2022-11-27T06:47:20;35.40;;;17.23;;
30420;SDS011;17218;54.070;10.012;2022-11-27T06:49:48;33.40;;;17.10;;
30420;SDS011;17218;54.070;10.012;2022-11-27T06:52:15;29.90;;;16.70;;
30420;SDS011;17218;54.070;10.012;2022-11-27T06:54:42;35.07;;;18.00;;
30420;SDS011;17218;54.070;10.012;2022-11-27T06:57:08;31.07;;;17.03;;
30420;SDS011;17218;54.070;10.012;2022-11-27T06:59:35;35.47;;;18.43;;
30420;SDS011;17218;54.070;10.012;2022-11-27T07:02:01;36.37;;;17.30;;
30420;SDS011;17218;54.070;10.012;2022-11-27T07:04:28;35.13;;;17.40;;
30420;SDS011;17218;54.070;10.012;2022-11-27T07:06:56;33.13;;;17.80;;
30420;SDS011;17218;54.070;10.012;2022-11-27T07:09:23;28.00;;;16.67;;
30420;SDS011;17218;54.070;10.012;2022-11-27T07:11:49;29.27;;;15.20;;
30420;SDS011;17218;54.070;10.012;2022-11-27T07:14:16;30.13;;;15.80;;
30420;SDS011;17218;54.070;10.012;2022-11-27T07:16:43;35.63;;;16.73;;
30420;SDS011;17218;54.070;10.012;2022-11-27T07:19:09;28.67;;;16.67;;
30420;SDS011;17218;54.070;10.012;2022-11-27T07:21:36;36.03;;;17.27;;
30420;SDS011;17218;54.070;10.012;2022-11-27T07:24:04;32.93;;;16.07;;
30420;SDS011;17218;54.070;10.012;2022-11-27T07:26:31;34.87;;;17.33;;
30420;SDS011;17218;54.070;10.012;2022-11-27T07:28:58;34.97;;;16.90;;
30420;SDS011;17218;54.070;10.012;2022-11-27T07:31:27;34.60;;;16.80;;
30420;SDS011;17218;54.070;10.012;2022-11-27T07:33:54;38.87;;;18.47;;
30420;SDS011;17218;54.070;10.012;2022-11-27T07:36:22;32.57;;;17.47;;
30420;SDS011;17218;54.070;10.012;2022-11-27T07:38:50;33.77;;;16.77;;
30420;SDS011;17218;54.070;10.012;2022-11-27T07:41:18;36.47;;;17.47;;
30420;SDS011;17218;54.070;10.012;2022-11-27T07:43:45;37.10;;;19.10;;
30420;SDS011;17218;54.070;10.012;2022-11-27T07:46:13;29.77;;;16.80;;
30420;SDS011;17218;54.070;10.012;2022-11-27T07:48:41;34.30;;;17.73;;
30420;SDS011;17218;54.070;10.012;2022-11-27T07:51:08;33.97;;;18.57;;
30420;SDS011;17218;54.070;10.012;2022-11-27T07:53:36;37.40;;;17.73;;
30420;SDS011;17218;54.070;10.012;2022-11-27T07:56:03;36.20;;;18.00;;
30420;SDS011;17218;54.070;10.012;2022-11-27T07:58:31;39.73;;;19.13;;
30420;SDS011;17218;54.070;10.012;2022-11-27T08:00:58;40.27;;;19.57;;
30420;SDS011;17218;54.070;10.012;2022-11-27T08:03:25;37.07;;;19.93;;
30420;SDS011;17218;54.070;10.012;2022-11-27T08:05:52;31.20;;;18.47;;
30420;SDS011;17218;54.070;10.012;2022-11-27T08:08:18;37.70;;;20.13;;
30420;SDS011;17218;54.070;10.012;2022-11-27T08:10:45;39.50;;;20.03;;
30420;SDS011;17218;54.070;10.012;2022-11-27T08:13:12;38.03;;;19.13;;
30420;SDS011;17218;54.070;10.012;2022-11-27T08:15:40;41.40;;;21.23;;
30420;SDS011;17218;54.070;10.012;2022-11-27T08:18:06;37.37;;;20.77;;
30420;SDS011;17218;54.070;10.012;2022-11-27T08:20:33;38.33;;;20.23;;
30420;SDS011;17218;54.070;10.012;2022-11-27T08:23:00;42.03;;;20.60;;
30420;SDS011;17218;54.070;10.012;2022-11-27T08:25:26;39.33;;;20.53;;
30420;SDS011;17218;54.070;10.012;2022-11-27T08:27:53;43.60;;;21.90;;
30420;SDS011;17218;54.070;10.012;2022-11-27T08:30:19;42.07;;;22.53;;
30420;SDS011;17218;54.070;10.012;2022-11-27T08:32:49;43.93;;;22.37;;
30420;SDS011;17218;54.070;10.012;2022-11-27T08:35:15;42.60;;;21.73;;
30420;SDS011;17218;54.070;10.012;2022-11-27T08:37:42;47.77;;;24.07;;
30420;SDS011;17218;54.070;10.012;2022-11-27T08:40:09;41.63;;;22.67;;
30420;SDS011;17218;54.070;10.012;2022-11-27T08:42:36;41.33;;;23.20;;
30420;SDS011;17218;54.070;10.012;2022-11-27T08:45:03;46.40;;;24.13;;
30420;SDS011;17218;54.070;10.012;2022-11-27T08:47:30;41.23;;;22.67;;
30420;SDS011;17218;54.070;10.012;2022-11-27T08:49:58;40.90;;;22.77;;
30420;SDS011;17218;54.070;10.012;2022-11-27T08:52:25;40.03;;;21.37;;
30420;SDS011;17218;54.070;10.012;2022-11-27T08:54:51;38.27;;;22.10;;
30420;SDS011;17218;54.070;10.012;2022-11-27T08:57:18;44.80;;;21.63;;
30420;SDS011;17218;54.070;10.012;2022-11-27T08:59:44;40.23;;;21.73;;
30420;SDS011;17218;54.070;10.012;2022-11-27T09:02:11;38.60;;;21.80;;
30420;SDS011;17218;54.070;10.012;2022-11-27T09:04:38;40.90;;;21.63;;
30420;SDS011;17218;54.070;10.012;2022-11-27T09:07:06;38.30;;;20.50;;
30420;SDS011;17218;54.070;10.012;2022-11-27T09:09:35;35.57;;;20.00;;
30420;SDS011;17218;54.070;10.012;2022-11-27T09:12:02;34.17;;;20.90;;
30420;SDS011;17218;54.070;10.012;2022-11-27T09:14:28;38.07;;;20.30;;
30420;SDS011;17218;54.070;10.012;2022-11-27T09:16:55;34.23;;;18.80;;
30420;SDS011;17218;54.070;10.012;2022-11-27T09:19:22;36.53;;;20.27;;
30420;SDS011;17218;54.070;10.012;2022-11-27T09:21:50;32.03;;;17.10;;
30420;SDS011;17218;54.070;10.012;2022-11-27T09:24:18;32.77;;;18.70;;
30420;SDS011;17218;54.070;10.012;2022-11-27T09:26:44;31.90;;;18.87;;
30420;SDS011;17218;54.070;10.012;2022-11-27T09:29:11;35.93;;;19.40;;
30420;SDS011;17218;54.070;10.012;2022-11-27T09:31:37;36.23;;;19.13;;
30420;SDS011;17218;54.070;10.012;2022-11-27T09:34:04;33.57;;;18.93;;
30420;SDS011;17218;54.070;10.012;2022-11-27T09:36:31;34.63;;;18.80;;
30420;SDS011;17218;54.070;10.012;2022-11-27T09:38:57;31.50;;;17.77;;
30420;SDS011;17218;54.070;10.012;2022-11-27T09:41:37;30.93;;;18.07;;
30420;SDS011;17218;54.070;10.012;2022-11-27T09:47:04;28.60;;;16.57;;
30420;SDS011;17218;54.070;10.012;2022-11-27T09:49:38;25.83;;;15.87;;
30420;SDS011;17218;54.070;10.012;2022-11-27T09:52:10;27.60;;;15.63;;
30420;SDS011;17218;54.070;10.012;2022-11-27T09:54:40;21.53;;;14.57;;
30420;SDS011;17218;54.070;10.012;2022-11-27T09:57:14;23.87;;;14.07;;
30420;SDS011;17218;54.070;10.012;2022-11-27T09:59:45;25.80;;;13.80;;
30420;SDS011;17218;54.070;10.012;2022-11-27T10:02:16;23.43;;;13.53;;
30420;SDS011;17218;54.070;10.012;2022-11-27T10:04:44;24.37;;;14.90;;
30420;SDS011;17218;54.070;10.012;2022-11-27T10:07:16;20.10;;;13.33;;
30420;SDS011;17218;54.070;10.012;2022-11-27T10:09:56;22.93;;;13.30;;
30420;SDS011;17218;54.070;10.012;2022-11-27T10:12:38;21.73;;;13.17;;
30420;SDS011;17218;54.070;10.012;2022-11-27T10:15:14;20.03;;;12.07;;
30420;SDS011;17218;54.070;10.012;2022-11-27T10:17:45;24.07;;;13.63;;
30420;SDS011;17218;54.070;10.012;2022-11-27T10:20:18;19.90;;;12.27;;
30420;SDS011;17218;54.070;10.012;2022-11-27T10:22:53;21.37;;;12.27;;
30420;SDS011;17218;54.070;10.012;2022-11-27T10:25:27;24.90;;;13.03;;
30420;SDS011;17218;54.070;10.012;2022-11-27T10:28:04;20.80;;;12.00;;
30420;SDS011;17218;54.070;10.012;2022-11-27T10:30:42;20.13;;;12.83;;
30420;SDS011;17218;54.070;10.012;2022-11-27T10:33:15;17.33;;;12.77;;
30420;SDS011;17218;54.070;10.012;2022-11-27T10:35:45;21.87;;;11.83;;
30420;SDS011;17218;54.070;10.012;2022-11-27T10:38:16;18.27;;;10.37;;
30420;SDS011;17218;54.070;10.012;2022-11-27T10:40:46;16.00;;;10.60;;
30420;SDS011;17218;54.070;10.012;2022-11-27T10:43:19;17.13;;;11.60;;
30420;SDS011;17218;54.070;10.012;2022-11-27T10:45:47;15.80;;;10.60;;
30420;SDS011;17218;54.070;10.012;2022-11-27T10:48:16;16.13;;;11.20;;
30420;SDS011;17218;54.070;10.012;2022-11-27T10:50:43;18.37;;;10.17;;
30420;SDS011;17218;54.070;10.012;2022-11-27T10:53:13;16.13;;;10.27;;
30420;SDS011;17218;54.070;10.012;2022-11-27T10:55:54;13.63;;;10.77;;
30420;SDS011;17218;54.070;10.012;2022-11-27T10:58:33;17.13;;;9.60;;
30420;SDS011;17218;54.070;10.012;2022-11-27T11:01:05;14.90;;;8.60;;
30420;SDS011;17218;54.070;10.012;2022-11-27T11:03:33;16.50;;;9.70;;
30420;SDS011;17218;54.070;10.012;2022-11-27T11:06:01;17.37;;;9.13;;
30420;SDS011;17218;54.070;10.012;2022-11-27T11:08:30;12.57;;;10.07;;
30420;SDS011;17218;54.070;10.012;2022-11-27T11:10:59;17.17;;;9.30;;
30420;SDS011;17218;54.070;10.012;2022-11-27T11:13:28;15.17;;;9.80;;
30420;SDS011;17218;54.070;10.012;2022-11-27T11:15:58;15.97;;;10.03;;
30420;SDS011;17218;54.070;10.012;2022-11-27T11:18:26;15.27;;;9.73;;
30420;SDS011;17218;54.070;10.012;2022-11-27T11:20:55;14.10;;;9.70;;
30420;SDS011;17218;54.070;10.012;2022-11-27T11:23:27;14.68;;;9.68;;
30420;SDS011;17218;54.070;10.012;2022-11-27T11:25:57;12.30;;;8.47;;
30420;SDS011;17218;54.070;10.012;2022-11-27T11:28:43;16.73;;;8.90;;
30420;SDS011;17218;54.070;10.012;2022-11-27T11:31:16;13.83;;;9.27;;
30420;SDS011;17218;54.070;10.012;2022-11-27T11:33:48;15.53;;;9.20;;
30420;SDS011;17218;54.070;10.012;2022-11-27T11:36:19;15.27;;;8.85;;
30420;SDS011;17218;54.070;10.012;2022-11-27T11:38:46;14.50;;;9.17;;
30420;SDS011;17218;54.070;10.012;2022-11-27T11:41:14;15.13;;;9.37;;
30420;SDS011;17218;54.070;10.012;2022-11-27T11:43:51;17.37;;;9.00;;
30420;SDS011;17218;54.070;10.012;2022-11-27T11:46:23;13.23;;;9.27;;
30420;SDS011;17218;54.070;10.012;2022-11-27T11:48:56;11.53;;;8.43;;
30420;SDS011;17218;54.070;10.012;2022-11-27T11:51:27;17.03;;;9.00;;
30420;SDS011;17218;54.070;10.012;2022-11-27T11:54:03;10.97;;;7.77;;
30420;SDS011;17218;54.070;10.012;2022-11-27T11:56:39;16.10;;;7.73;;
30420;SDS011;17218;54.070;10.012;2022-11-27T11:59:14;11.10;;;7.77;;
30420;SDS011;17218;54.070;10.012;2022-11-27T12:02:06;12.93;;;8.77;;
30420;SDS011;17218;54.070;10.012;2022-11-27T12:04:56;11.87;;;8.37;;
30420;SDS011;17218;54.070;10.012;2022-11-27T12:07:37;14.23;;;8.80;;
30420;SDS011;17218;54.070;10.012;2022-11-27T12:10:18;18.80;;;9.40;;
30420;SDS011;17218;54.070;10.012;2022-11-27T12:12:51;10.23;;;7.77;;
30420;SDS011;17218;54.070;10.012;2022-11-27T12:15:28;12.23;;;7.73;;
30420;SDS011;17218;54.070;10.012;2022-11-27T12:18:02;12.52;;;8.43;;
30420;SDS011;17218;54.070;10.012;2022-11-27T12:20:40;11.25;;;8.30;;
30420;SDS011;17218;54.070;10.012;2022-11-27T12:23:36;13.30;;;9.17;;
30420;SDS011;17218;54.070;10.012;2022-11-27T12:26:16;11.83;;;7.87;;
30420;SDS011;17218;54.070;10.012;2022-11-27T12:29:02;14.95;;;8.15;;
30420;SDS011;17218;54.070;10.012;2022-11-27T12:31:58;13.43;;;8.70;;
30420;SDS011;17218;54.070;10.012;2022-11-27T12:34:42;12.40;;;8.40;;
30420;SDS011;17218;54.070;10.012;2022-11-27T12:37:23;12.80;;;7.90;;
30420;SDS011;17218;54.070;10.012;2022-11-27T12:40:04;15.27;;;9.00;;
30420;SDS011;17218;54.070;10.012;2022-11-27T12:42:47;14.30;;;8.80;;
30420;SDS011;17218;54.070;10.012;2022-11-27T12:45:22;12.17;;;8.67;;
30420;SDS011;17218;54.070;10.012;2022-11-27T12:47:53;16.10;;;8.48;;
30420;SDS011;17218;54.070;10.012;2022-11-27T12:50:26;12.70;;;8.60;;
30420;SDS011;17218;54.070;10.012;2022-11-27T12:53:02;15.13;;;8.33;;
30420;SDS011;17218;54.070;10.012;2022-11-27T12:55:36;16.40;;;8.07;;
30420;SDS011;17218;54.070;10.012;2022-11-27T12:58:06;16.53;;;7.97;;
30420;SDS011;17218;54.070;10.012;2022-11-27T13:00:39;12.37;;;8.57;;
30420;SDS011;17218;54.070;10.012;2022-11-27T13:03:09;14.97;;;8.23;;
30420;SDS011;17218;54.070;10.012;2022-11-27T13:05:43;12.63;;;8.27;;
30420;SDS011;17218;54.070;10.012;2022-11-27T13:08:14;16.07;;;8.90;;
30420;SDS011;17218;54.070;10.012;2022-11-27T13:10:46;11.93;;;7.93;;
30420;SDS011;17218;54.070;10.012;2022-11-27T13:13:19;14.10;;;8.07;;
30420;SDS011;17218;54.070;10.012;2022-11-27T13:15:49;12.23;;;8.23;;
30420;SDS011;17218;54.070;10.012;2022-11-27T13:18:22;13.52;;;8.05;;
30420;SDS011;17218;54.070;10.012;2022-11-27T13:21:01;12.47;;;8.17;;
30420;SDS011;17218;54.070;10.012;2022-11-27T13:23:30;15.38;;;8.98;;
30420;SDS011;17218;54.070;10.012;2022-11-27T13:25:57;11.33;;;7.87;;
30420;SDS011;17218;54.070;10.012;2022-11-27T13:28:30;11.80;;;8.32;;
30420;SDS011;17218;54.070;10.012;2022-11-27T13:31:03;12.43;;;8.37;;
30420;SDS011;17218;54.070;10.012;2022-11-27T13:33:35;13.50;;;8.57;;
30420;SDS011;17218;54.070;10.012;2022-11-27T13:36:15;18.07;;;8.40;;
30420;SDS011;17218;54.070;10.012;2022-11-27T13:38:44;16.10;;;9.03;;
30420;SDS011;17218;54.070;10.012;2022-11-27T13:41:19;16.63;;;9.37;;
30420;SDS011;17218;54.070;10.012;2022-11-27T13:43:46;13.57;;;8.20;;
30420;SDS011;17218;54.070;10.012;2022-11-27T13:46:17;13.65;;;9.15;;
30420;SDS011;17218;54.070;10.012;2022-11-27T13:48:49;10.47;;;8.03;;
30420;SDS011;17218;54.070;10.012;2022-11-27T13:51:23;12.45;;;7.97;;
30420;SDS011;17218;54.070;10.012;2022-11-27T13:53:52;14.90;;;8.37;;
30420;SDS011;17218;54.070;10.012;2022-11-27T13:56:27;13.18;;;7.93;;
30420;SDS011;17218;54.070;10.012;2022-11-27T13:58:55;14.73;;;8.70;;
30420;SDS011;17218;54.070;10.012;2022-11-27T14:01:22;10.27;;;7.20;;
30420;SDS011;17218;54.070;10.012;2022-11-27T14:03:50;13.83;;;8.53;;
30420;SDS011;17218;54.070;10.012;2022-11-27T14:06:19;15.47;;;8.57;;
30420;SDS011;17218;54.070;10.012;2022-11-27T14:08:50;14.33;;;9.20;;
30420;SDS011;17218;54.070;10.012;2022-11-27T14:11:28;11.03;;;8.93;;
30420;SDS011;17218;54.070;10.012;2022-11-27T14:13:57;13.63;;;8.13;;
30420;SDS011;17218;54.070;10.012;2022-11-27T14:16:27;12.73;;;8.02;;
30420;SDS011;17218;54.070;10.012;2022-11-27T14:18:56;12.80;;;8.67;;
30420;SDS011;17218;54.070;10.012;2022-11-27T14:21:25;14.43;;;8.73;;
30420;SDS011;17218;54.070;10.012;2022-11-27T14:24:19;10.43;;;8.50;;
30420;SDS011;17218;54.070;10.012;2022-11-27T14:26:49;11.60;;;7.60;;
30420;SDS011;17218;54.070;10.012;2022-11-27T14:29:18;10.82;;;9.27;;
30420;SDS011;17218;54.070;10.012;2022-11-27T14:31:45;12.27;;;8.53;;
30420;SDS011;17218;54.070;10.012;2022-11-27T14:34:24;9.40;;;7.37;;
30420;SDS011;17218;54.070;10.012;2022-11-27T14:36:52;14.93;;;8.90;;